sensor_id;sensor_type;location;lat;lon;timestamp;pressure;altitude;pressure_sealevel;temperature;humidity
51123;BME280;37162;41.724;13.346;2022-10-17T00:01:49;97677.19;;;20.41;61.36
51123;BME280;37162;41.724;13.346;2022-10-17T00:04:15;97669.34;;;20.39;61.32
51123;BME280;37162;41.724;13.346;2022-10-17T00:06:40;97669.34;;;20.39;61.17
51123;BME280;37162;41.724;13.346;2022-10-17T00:09:06;97670.41;;;20.38;61.00
51123;BME280;37162;41.724;13.346;2022-10-17T00:11:32;97668.53;;;20.39;61.13
51123;BME280;37162;41.724;13.346;2022-10-17T00:13:57;97674.75;;;20.39;61.02
51123;BME280;37162;41.724;13.346;2022-10-17T00:16:25;97673.09;;;20.38;60.94
51123;BME280;37162;41.724;13.346;2022-10-17T00:18:51;97661.50;;;20.38;60.82
51123;BME280;37162;41.724;13.346;2022-10-17T00:21:18;97668.78;;;20.37;60.97
51123;BME280;37162;41.724;13.346;2022-10-17T00:23:44;97668.53;;;20.39;60.79
51123;BME280;37162;41.724;13.346;2022-10-17T00:26:10;97672.28;;;20.38;60.71
51123;BME280;37162;41.724;13.346;2022-10-17T00:28:35;97658.88;;;20.31;60.64
51123;BME280;37162;41.724;13.346;2022-10-17T00:31:03;97665.22;;;20.37;60.62
51123;BME280;37162;41.724;13.346;2022-10-17T00:33:30;97670.41;;;20.38;60.56
51123;BME280;37162;41.724;13.346;2022-10-17T00:36:06;97671.47;;;20.37;60.69
51123;BME280;37162;41.724;13.346;2022-10-17T00:38:32;97667.91;;;20.37;60.55
51123;BME280;37162;41.724;13.346;2022-10-17T00:40:58;97667.91;;;20.37;60.49
51123;BME280;37162;41.724;13.346;2022-10-17T00:43:23;97668.78;;;20.37;60.46
51123;BME280;37162;41.724;13.346;2022-10-17T00:45:49;97671.47;;;20.37;60.41
51123;BME280;37162;41.724;13.346;2022-10-17T00:48:14;97667.09;;;20.36;60.39
51123;BME280;37162;41.724;13.346;2022-10-17T00:50:43;97667.91;;;20.37;60.38
51123;BME280;37162;41.724;13.346;2022-10-17T00:53:10;97665.22;;;20.37;60.53
51123;BME280;37162;41.724;13.346;2022-10-17T00:55:42;97667.09;;;20.36;60.52
51123;BME280;37162;41.724;13.346;2022-10-17T00:58:08;97671.47;;;20.37;60.56
51123;BME280;37162;41.724;13.346;2022-10-17T01:00:34;97672.50;;;20.36;60.61
51123;BME280;37162;41.724;13.346;2022-10-17T01:03:01;97672.38;;;20.31;60.54
51123;BME280;37162;41.724;13.346;2022-10-17T01:05:27;97679.56;;;20.37;60.59
51123;BME280;37162;41.724;13.346;2022-10-17T01:07:53;97680.59;;;20.36;60.48
51123;BME280;37162;41.724;13.346;2022-10-17T01:10:19;97679.78;;;20.36;60.32
51123;BME280;37162;41.724;13.346;2022-10-17T01:18:14;97674.50;;;20.29;60.09
51123;BME280;37162;41.724;13.346;2022-10-17T01:31:47;97677.31;;;20.34;60.07
51123;BME280;37162;41.724;13.346;2022-10-17T01:34:38;97675.69;;;20.33;60.02
51123;BME280;37162;41.724;13.346;2022-10-17T01:37:18;97678.38;;;20.33;60.25
51123;BME280;37162;41.724;13.346;2022-10-17T01:39:52;97667.59;;;20.33;60.22
51123;BME280;37162;41.724;13.346;2022-10-17T01:42:41;97667.59;;;20.33;60.31
51123;BME280;37162;41.724;13.346;2022-10-17T01:45:25;97666.53;;;20.34;60.33
51123;BME280;37162;41.724;13.346;2022-10-17T01:47:55;97663.47;;;20.31;60.49
51123;BME280;37162;41.724;13.346;2022-10-17T01:50:33;97671.09;;;20.34;60.37
51123;BME280;37162;41.724;13.346;2022-10-17T01:53:09;97673.81;;;20.34;60.37
51123;BME280;37162;41.724;13.346;2022-10-17T01:55:40;97672.97;;;20.33;60.10
51123;BME280;37162;41.724;13.346;2022-10-17T01:58:13;97669.69;;;20.31;59.91
51123;BME280;37162;41.724;13.346;2022-10-17T02:00:42;97667.59;;;20.33;59.99
51123;BME280;37162;41.724;13.346;2022-10-17T02:03:13;97665.09;;;20.32;59.91
51123;BME280;37162;41.724;13.346;2022-10-17T02:05:41;97679.41;;;20.32;59.98
51123;BME280;37162;41.724;13.346;2022-10-17T02:08:08;97662.50;;;20.25;59.95
51123;BME280;37162;41.724;13.346;2022-10-17T02:10:48;97671.31;;;20.32;59.95
51123;BME280;37162;41.724;13.346;2022-10-17T02:16:38;97682.34;;;20.31;60.03
51123;BME280;37162;41.724;13.346;2022-10-17T02:24:17;97675.06;;;20.31;60.13
51123;BME280;37162;41.724;13.346;2022-10-17T02:26:54;97682.09;;;20.32;60.14
51123;BME280;37162;41.724;13.346;2022-10-17T02:35:12;97652.66;;;20.19;59.99
51123;BME280;37162;41.724;13.346;2022-10-17T02:37:40;97667.22;;;20.30;60.25
51123;BME280;37162;41.724;13.346;2022-10-17T02:40:09;97669.09;;;20.29;59.99
51123;BME280;37162;41.724;13.346;2022-10-17T02:42:35;97665.59;;;20.29;59.84
51123;BME280;37162;41.724;13.346;2022-10-17T02:45:02;97668.28;;;20.29;59.80
51123;BME280;37162;41.724;13.346;2022-10-17T02:47:39;97671.78;;;20.29;59.72
51123;BME280;37162;41.724;13.346;2022-10-17T02:50:08;97658.50;;;20.28;59.88
51123;BME280;37162;41.724;13.346;2022-10-17T02:52:56;97675.56;;;20.28;59.75
51123;BME280;37162;41.724;13.346;2022-10-17T02:55:35;97678.25;;;20.28;59.62
51123;BME280;37162;41.724;13.346;2022-10-17T02:58:06;97673.88;;;20.27;59.68
51123;BME280;37162;41.724;13.346;2022-10-17T03:00:33;97675.66;;;20.22;59.64
51123;BME280;37162;41.724;13.346;2022-10-17T03:02:59;97678.47;;;20.27;59.54
51123;BME280;37162;41.724;13.346;2022-10-17T03:05:27;97679.28;;;20.27;59.73
51123;BME280;37162;41.724;13.346;2022-10-17T03:07:53;97683.88;;;20.27;59.41
51123;BME280;37162;41.724;13.346;2022-10-17T03:10:19;97686.34;;;20.28;59.80
51123;BME280;37162;41.724;13.346;2022-10-17T03:12:45;97684.69;;;20.27;59.82
51123;BME280;37162;41.724;13.346;2022-10-17T03:15:10;97683.88;;;20.27;59.81
51123;BME280;37162;41.724;13.346;2022-10-17T03:17:36;97683.03;;;20.26;59.61
51123;BME280;37162;41.724;13.346;2022-10-17T03:20:02;97684.09;;;20.25;59.67
51123;BME280;37162;41.724;13.346;2022-10-17T03:22:28;97684.09;;;20.25;59.98
51123;BME280;37162;41.724;13.346;2022-10-17T03:24:54;97688.69;;;20.25;59.64
51123;BME280;37162;41.724;13.346;2022-10-17T03:27:19;97686.81;;;20.25;59.90
51123;BME280;37162;41.724;13.346;2022-10-17T03:29:45;97683.28;;;20.25;59.92
51123;BME280;37162;41.724;13.346;2022-10-17T03:32:10;97690.31;;;20.26;60.17
51123;BME280;37162;41.724;13.346;2022-10-17T03:34:36;97689.38;;;20.20;60.38
51123;BME280;37162;41.724;13.346;2022-10-17T03:37:01;97695.97;;;20.24;60.39
51123;BME280;37162;41.724;13.346;2022-10-17T03:39:26;97693.72;;;20.21;60.41
51123;BME280;37162;41.724;13.346;2022-10-17T03:41:52;97699.09;;;20.21;60.18
51123;BME280;37162;41.724;13.346;2022-10-17T03:44:17;97704.50;;;20.21;60.03
51123;BME280;37162;41.724;13.346;2022-10-17T03:46:42;97697.47;;;20.20;59.74
51123;BME280;37162;41.724;13.346;2022-10-17T03:49:09;97703.94;;;20.19;59.84
51123;BME280;37162;41.724;13.346;2022-10-17T03:51:35;97710.97;;;20.20;59.70
51123;BME280;37162;41.724;13.346;2022-10-17T03:54:01;97714.47;;;20.21;59.53
51123;BME280;37162;41.724;13.346;2022-10-17T03:56:26;97704.63;;;20.14;59.45
51123;BME280;37162;41.724;13.346;2022-10-17T03:58:53;97709.91;;;20.21;59.44
51123;BME280;37162;41.724;13.346;2022-10-17T04:01:19;97710.97;;;20.20;59.41
51123;BME280;37162;41.724;13.346;2022-10-17T04:03:52;97716.34;;;20.20;59.30
51123;BME280;37162;41.724;13.346;2022-10-17T04:06:19;97700.25;;;20.13;59.29
51123;BME280;37162;41.724;13.346;2022-10-17T04:08:45;97716.34;;;20.20;59.35
51123;BME280;37162;41.724;13.346;2022-10-17T04:11:14;97710.13;;;20.20;59.10
51123;BME280;37162;41.724;13.346;2022-10-17T04:13:40;97717.19;;;20.21;59.21
51123;BME280;37162;41.724;13.346;2022-10-17T04:16:09;97717.19;;;20.21;59.17
51123;BME280;37162;41.724;13.346;2022-10-17T04:18:36;97719.06;;;20.20;59.16
51123;BME280;37162;41.724;13.346;2022-10-17T04:21:02;97716.34;;;20.20;59.09
51123;BME280;37162;41.724;13.346;2022-10-17T04:23:28;97715.53;;;20.20;58.97
51123;BME280;37162;41.724;13.346;2022-10-17T04:25:59;97718.25;;;20.20;59.10
51123;BME280;37162;41.724;13.346;2022-10-17T04:28:26;97716.81;;;20.17;58.69
51123;BME280;37162;41.724;13.346;2022-10-17T04:31:06;97713.91;;;20.19;59.10
51123;BME280;37162;41.724;13.346;2022-10-17T04:33:33;97720.13;;;20.19;59.16
51123;BME280;37162;41.724;13.346;2022-10-17T04:36:15;97723.63;;;20.20;59.20
51123;BME280;37162;41.724;13.346;2022-10-17T04:38:41;97704.69;;;20.08;59.06
51123;BME280;37162;41.724;13.346;2022-10-17T04:41:10;97720.13;;;20.19;59.12
51123;BME280;37162;41.724;13.346;2022-10-17T04:43:37;97727.41;;;20.19;59.05
51123;BME280;37162;41.724;13.346;2022-10-17T04:46:05;97711.53;;;20.10;58.99
51123;BME280;37162;41.724;13.346;2022-10-17T04:48:31;97728.22;;;20.19;59.07
51123;BME280;37162;41.724;13.346;2022-10-17T04:50:59;97730.09;;;20.19;59.04
51123;BME280;37162;41.724;13.346;2022-10-17T04:53:25;97725.72;;;20.17;58.95
51123;BME280;37162;41.724;13.346;2022-10-17T04:55:51;97733.00;;;20.17;59.03
51123;BME280;37162;41.724;13.346;2022-10-17T04:58:17;97725.22;;;20.09;58.87
51123;BME280;37162;41.724;13.346;2022-10-17T05:00:43;97735.69;;;20.17;59.00
51123;BME280;37162;41.724;13.346;2022-10-17T05:03:08;97737.81;;;20.15;58.98
51123;BME280;37162;41.724;13.346;2022-10-17T05:05:36;97718.19;;;20.08;58.90
51123;BME280;37162;41.724;13.346;2022-10-17T05:08:03;97729.72;;;20.15;59.13
51123;BME280;37162;41.724;13.346;2022-10-17T05:10:28;97725.22;;;20.09;58.95
51123;BME280;37162;41.724;13.346;2022-10-17T05:12:54;97733.47;;;20.14;59.11
51123;BME280;37162;41.724;13.346;2022-10-17T05:15:19;97732.63;;;20.13;59.12
51123;BME280;37162;41.724;13.346;2022-10-17T05:17:45;97744.28;;;20.14;59.17
51123;BME280;37162;41.724;13.346;2022-10-17T05:20:10;97737.19;;;20.13;59.19
51123;BME280;37162;41.724;13.346;2022-10-17T05:22:36;97746.13;;;20.13;59.34
51123;BME280;37162;41.724;13.346;2022-10-17T05:25:01;97747.41;;;20.11;59.07
51123;BME280;37162;41.724;13.346;2022-10-17T05:27:27;97749.06;;;20.12;59.13
51123;BME280;37162;41.724;13.346;2022-10-17T05:29:52;97757.16;;;20.12;58.96
51123;BME280;37162;41.724;13.346;2022-10-17T05:32:17;97751.16;;;20.10;58.96
51123;BME280;37162;41.724;13.346;2022-10-17T05:34:43;97737.41;;;20.00;58.91
51123;BME280;37162;41.724;13.346;2022-10-17T05:37:08;97752.19;;;20.09;58.92
51123;BME280;37162;41.724;13.346;2022-10-17T05:39:34;97755.13;;;20.07;58.91
51123;BME280;37162;41.724;13.346;2022-10-17T05:41:59;97755.94;;;20.08;58.88
51123;BME280;37162;41.724;13.346;2022-10-17T05:44:24;97761.34;;;20.08;58.90
51123;BME280;37162;41.724;13.346;2022-10-17T05:46:50;97765.09;;;20.07;58.82
51123;BME280;37162;41.724;13.346;2022-10-17T05:49:16;97771.56;;;20.06;58.86
51123;BME280;37162;41.724;13.346;2022-10-17T05:51:41;97770.50;;;20.07;58.72
51123;BME280;37162;41.724;13.346;2022-10-17T05:54:07;97778.59;;;20.07;58.69
51123;BME280;37162;41.724;13.346;2022-10-17T05:56:33;97780.03;;;20.09;58.93
51123;BME280;37162;41.724;13.346;2022-10-17T05:58:59;97780.59;;;20.11;59.04
51123;BME280;37162;41.724;13.346;2022-10-17T06:01:25;97784.94;;;20.12;59.09
51123;BME280;37162;41.724;13.346;2022-10-17T06:03:50;97792.59;;;20.15;59.17
51123;BME280;37162;41.724;13.346;2022-10-17T06:06:16;97789.91;;;20.15;58.95
51123;BME280;37162;41.724;13.346;2022-10-17T06:08:42;97793.41;;;20.16;58.94
51123;BME280;37162;41.724;13.346;2022-10-17T06:11:07;97794.00;;;20.18;58.86
51123;BME280;37162;41.724;13.346;2022-10-17T06:13:33;97790.28;;;20.19;58.95
51123;BME280;37162;41.724;13.346;2022-10-17T06:15:58;97792.97;;;20.19;58.60
51123;BME280;37162;41.724;13.346;2022-10-17T06:18:24;97803.28;;;20.22;58.63
51123;BME280;37162;41.724;13.346;2022-10-17T06:20:50;97803.28;;;20.22;58.69
51123;BME280;37162;41.724;13.346;2022-10-17T06:23:16;97797.31;;;20.20;58.34
51123;BME280;37162;41.724;13.346;2022-10-17T06:25:41;97813.63;;;20.25;58.16
51123;BME280;37162;41.724;13.346;2022-10-17T06:28:07;97811.50;;;20.27;58.17
51123;BME280;37162;41.724;13.346;2022-10-17T06:30:32;97822.56;;;20.26;56.60
51123;BME280;37162;41.724;13.346;2022-10-17T06:32:57;97807.50;;;20.18;54.55
51123;BME280;37162;41.724;13.346;2022-10-17T06:35:23;97823.75;;;20.30;54.42
51123;BME280;37162;41.724;13.346;2022-10-17T06:37:49;97825.75;;;20.34;54.11
51123;BME280;37162;41.724;13.346;2022-10-17T06:40:14;97822.69;;;20.31;53.75
51123;BME280;37162;41.724;13.346;2022-10-17T06:42:41;97831.06;;;20.41;53.96
51123;BME280;37162;41.724;13.346;2022-10-17T06:45:07;97839.53;;;20.45;53.91
51123;BME280;37162;41.724;13.346;2022-10-17T06:47:33;97846.38;;;20.47;54.05
51123;BME280;37162;41.724;13.346;2022-10-17T06:49:59;97845.31;;;20.48;53.39
51123;BME280;37162;41.724;13.346;2022-10-17T06:52:25;97854.00;;;20.50;53.35
51123;BME280;37162;41.724;13.346;2022-10-17T06:54:50;97853.56;;;20.53;53.96
51123;BME280;37162;41.724;13.346;2022-10-17T06:57:16;97855.56;;;20.58;54.68
51123;BME280;37162;41.724;13.346;2022-10-17T06:59:42;97862.38;;;20.60;55.04
51123;BME280;37162;41.724;13.346;2022-10-17T07:02:09;97865.94;;;20.61;55.16
51123;BME280;37162;41.724;13.346;2022-10-17T07:04:34;97858.41;;;20.63;55.52
51123;BME280;37162;41.724;13.346;2022-10-17T07:07:00;97860.28;;;20.62;55.21
51123;BME280;37162;41.724;13.346;2022-10-17T07:09:28;97863.13;;;20.67;55.58
51123;BME280;37162;41.724;13.346;2022-10-17T07:11:53;97867.84;;;20.72;55.89
51123;BME280;37162;41.724;13.346;2022-10-17T07:14:18;97866.53;;;20.75;56.19
51123;BME280;37162;41.724;13.346;2022-10-17T07:16:44;97872.09;;;20.80;56.59
51123;BME280;37162;41.724;13.346;2022-10-17T07:19:09;97876.19;;;20.82;57.06
51123;BME280;37162;41.724;13.346;2022-10-17T07:21:35;97873.03;;;20.85;56.96
51123;BME280;37162;41.724;13.346;2022-10-17T07:24:00;97871.75;;;20.88;56.98
51123;BME280;37162;41.724;13.346;2022-10-17T07:26:25;97869.41;;;20.91;56.94
51123;BME280;37162;41.724;13.346;2022-10-17T07:28:53;97868.97;;;20.95;57.04
51123;BME280;37162;41.724;13.346;2022-10-17T07:31:20;97864.97;;;20.97;56.99
51123;BME280;37162;41.724;13.346;2022-10-17T07:33:46;97869.44;;;21.03;57.07
51123;BME280;37162;41.724;13.346;2022-10-17T07:36:12;97870.84;;;21.06;57.16
51123;BME280;37162;41.724;13.346;2022-10-17T07:38:38;97867.91;;;21.07;56.52
51123;BME280;37162;41.724;13.346;2022-10-17T07:41:05;97866.19;;;21.13;56.99
51123;BME280;37162;41.724;13.346;2022-10-17T07:43:31;97866.75;;;21.15;56.51
51123;BME280;37162;41.724;13.346;2022-10-17T07:45:57;97867.94;;;21.19;56.39
51123;BME280;37162;41.724;13.346;2022-10-17T07:48:23;97865.00;;;21.21;54.77
51123;BME280;37162;41.724;13.346;2022-10-17T07:50:49;97873.59;;;21.29;56.26
51123;BME280;37162;41.724;13.346;2022-10-17T07:53:14;97872.09;;;21.33;56.38
51123;BME280;37162;41.724;13.346;2022-10-17T07:55:40;97872.09;;;21.33;55.99
51123;BME280;37162;41.724;13.346;2022-10-17T07:58:07;97877.38;;;21.40;56.38
51123;BME280;37162;41.724;13.346;2022-10-17T08:00:33;97875.03;;;21.43;56.37
51123;BME280;37162;41.724;13.346;2022-10-17T08:02:59;97886.47;;;21.46;56.20
51123;BME280;37162;41.724;13.346;2022-10-17T08:05:24;97881.63;;;21.48;56.09
51123;BME280;37162;41.724;13.346;2022-10-17T08:07:50;97885.50;;;21.52;55.92
51123;BME280;37162;41.724;13.346;2022-10-17T08:10:16;97888.59;;;21.55;56.36
51123;BME280;37162;41.724;13.346;2022-10-17T08:12:41;97889.72;;;21.59;55.79
51123;BME280;37162;41.724;13.346;2022-10-17T08:15:08;97894.69;;;21.62;55.93
51123;BME280;37162;41.724;13.346;2022-10-17T08:17:34;97899.03;;;21.63;55.75
51123;BME280;37162;41.724;13.346;2022-10-17T08:20:00;97899.38;;;21.67;55.76
51123;BME280;37162;41.724;13.346;2022-10-17T08:22:26;97902.44;;;21.71;56.27
51123;BME280;37162;41.724;13.346;2022-10-17T08:24:52;97883.63;;;21.64;56.15
51123;BME280;37162;41.724;13.346;2022-10-17T08:27:17;97898.69;;;21.72;56.07
51123;BME280;37162;41.724;13.346;2022-10-17T08:29:48;97886.78;;;21.73;56.18
51123;BME280;37162;41.724;13.346;2022-10-17T08:32:17;97900.31;;;21.73;56.02
51123;BME280;37162;41.724;13.346;2022-10-17T08:34:43;97887.16;;;21.64;55.88
51123;BME280;37162;41.724;13.346;2022-10-17T08:37:09;97890.56;;;21.72;56.10
51123;BME280;37162;41.724;13.346;2022-10-17T08:39:34;97896.78;;;21.72;55.87
51123;BME280;37162;41.724;13.346;2022-10-17T08:42:29;97898.44;;;21.73;55.77
51123;BME280;37162;41.724;13.346;2022-10-17T08:45:18;97893.03;;;21.73;55.73
51123;BME280;37162;41.724;13.346;2022-10-17T08:47:47;97904.66;;;21.74;55.61
51123;BME280;37162;41.724;13.346;2022-10-17T08:51:04;97900.44;;;21.78;55.64
51123;BME280;37162;41.724;13.346;2022-10-17T08:56:23;97894.81;;;21.79;55.82
51123;BME280;37162;41.724;13.346;2022-10-17T08:58:49;97910.66;;;21.87;55.84
51123;BME280;37162;41.724;13.346;2022-10-17T09:01:35;97903.72;;;21.91;55.84
51123;BME280;37162;41.724;13.346;2022-10-17T09:13:05;97910.19;;;22.02;55.68
51123;BME280;37162;41.724;13.346;2022-10-17T09:18:45;97915.47;;;22.09;55.74
51123;BME280;37162;41.724;13.346;2022-10-17T09:20:52;97916.69;;;22.13;55.80
51123;BME280;37162;41.724;13.346;2022-10-17T09:23:22;97916.44;;;22.14;55.81
51123;BME280;37162;41.724;13.346;2022-10-17T09:25:53;97909.81;;;22.10;55.65
51123;BME280;37162;41.724;13.346;2022-10-17T09:28:30;97909.94;;;22.15;55.58
51123;BME280;37162;41.724;13.346;2022-10-17T09:31:08;97925.13;;;22.28;55.58
51123;BME280;37162;41.724;13.346;2022-10-17T09:33:42;97917.81;;;22.29;55.54
51123;BME280;37162;41.724;13.346;2022-10-17T09:36:21;97915.91;;;22.29;55.19
51123;BME280;37162;41.724;13.346;2022-10-17T09:38:49;97917.59;;;22.30;55.08
51123;BME280;37162;41.724;13.346;2022-10-17T09:41:38;97907.34;;;22.20;55.17
51123;BME280;37162;41.724;13.346;2022-10-17T09:46:49;97914.63;;;22.32;55.12
51123;BME280;37162;41.724;13.346;2022-10-17T09:49:18;97919.81;;;22.33;55.42
51123;BME280;37162;41.724;13.346;2022-10-17T09:51:47;97910.50;;;22.29;55.55
51123;BME280;37162;41.724;13.346;2022-10-17T09:54:19;97923.13;;;22.35;55.49
51123;BME280;37162;41.724;13.346;2022-10-17T09:57:07;97915.56;;;22.37;55.77
51123;BME280;37162;41.724;13.346;2022-10-17T09:59:39;97918.25;;;22.37;55.40
51123;BME280;37162;41.724;13.346;2022-10-17T10:02:20;97915.56;;;22.37;55.43
51123;BME280;37162;41.724;13.346;2022-10-17T10:05:14;97915.00;;;22.35;55.35
51123;BME280;37162;41.724;13.346;2022-10-17T10:07:59;97920.00;;;22.43;55.33
51123;BME280;37162;41.724;13.346;2022-10-17T10:10:27;97913.19;;;22.41;55.35
51123;BME280;37162;41.724;13.346;2022-10-17T10:15:37;97925.78;;;22.47;55.62
51123;BME280;37162;41.724;13.346;2022-10-17T10:18:26;97911.97;;;22.49;55.21
51123;BME280;37162;41.724;13.346;2022-10-17T10:21:11;97916.34;;;22.50;55.36
51123;BME280;37162;41.724;13.346;2022-10-17T10:23:42;97916.09;;;22.51;55.30
51123;BME280;37162;41.724;13.346;2022-10-17T10:26:44;97908.56;;;22.53;55.29
51123;BME280;37162;41.724;13.346;2022-10-17T10:34:37;97897.88;;;22.47;55.52
51123;BME280;37162;41.724;13.346;2022-10-17T10:37:05;97911.25;;;22.53;55.75
51123;BME280;37162;41.724;13.346;2022-10-17T10:39:44;97900.69;;;22.52;55.42
51123;BME280;37162;41.724;13.346;2022-10-17T10:42:41;97904.19;;;22.52;55.82
51123;BME280;37162;41.724;13.346;2022-10-17T10:45:39;97903.38;;;22.52;55.46
51123;BME280;37162;41.724;13.346;2022-10-17T10:50:56;97901.28;;;22.54;55.75
51123;BME280;37162;41.724;13.346;2022-10-17T11:01:22;97888.34;;;22.73;55.85
51123;BME280;37162;41.724;13.346;2022-10-17T11:06:26;97890.81;;;22.74;55.20
51123;BME280;37162;41.724;13.346;2022-10-17T11:09:08;97892.94;;;22.72;55.23
51123;BME280;37162;41.724;13.346;2022-10-17T11:11:39;97891.53;;;22.69;55.47
51123;BME280;37162;41.724;13.346;2022-10-17T11:14:15;97892.63;;;22.68;55.53
51123;BME280;37162;41.724;13.346;2022-10-17T11:17:21;97889.09;;;22.68;55.19
51123;BME280;37162;41.724;13.346;2022-10-17T11:22:41;97876.00;;;22.65;55.46
51123;BME280;37162;41.724;13.346;2022-10-17T11:27:57;97878.56;;;22.71;55.30
51123;BME280;37162;41.724;13.346;2022-10-17T11:30:26;97877.19;;;22.69;55.68
51123;BME280;37162;41.724;13.346;2022-10-17T11:32:57;97877.53;;;22.73;55.64
51123;BME280;37162;41.724;13.346;2022-10-17T11:35:34;97872.91;;;22.73;55.66
51123;BME280;37162;41.724;13.346;2022-10-17T11:38:20;97872.91;;;22.73;55.65
51123;BME280;37162;41.724;13.346;2022-10-17T11:40:51;97871.50;;;22.70;55.53
51123;BME280;37162;41.724;13.346;2022-10-17T11:43:42;97869.06;;;22.69;55.21
51123;BME280;37162;41.724;13.346;2022-10-17T11:46:17;97867.63;;;22.66;55.37
51123;BME280;37162;41.724;13.346;2022-10-17T11:51:15;97862.94;;;22.62;55.30
51123;BME280;37162;41.724;13.346;2022-10-17T11:53:48;97860.50;;;22.60;55.77
51123;BME280;37162;41.724;13.346;2022-10-17T11:56:21;97858.25;;;22.57;55.61
51123;BME280;37162;41.724;13.346;2022-10-17T12:01:40;97850.03;;;22.52;56.21
51123;BME280;37162;41.724;13.346;2022-10-17T12:10:33;97847.09;;;22.54;56.01
51123;BME280;37162;41.724;13.346;2022-10-17T12:15:51;97841.09;;;22.52;55.92
51123;BME280;37162;41.724;13.346;2022-10-17T12:18:17;97840.28;;;22.51;56.07
51123;BME280;37162;41.724;13.346;2022-10-17T12:20:57;97847.84;;;22.49;55.56
51123;BME280;37162;41.724;13.346;2022-10-17T12:23:30;97842.28;;;22.44;56.16
51123;BME280;37162;41.724;13.346;2022-10-17T12:26:02;97838.44;;;22.40;56.06
51123;BME280;37162;41.724;13.346;2022-10-17T12:28:30;97837.50;;;22.34;56.19
51123;BME280;37162;41.724;13.346;2022-10-17T12:33:33;97828.03;;;22.20;56.09
51123;BME280;37162;41.724;13.346;2022-10-17T12:39:40;97822.38;;;22.10;56.79
51123;BME280;37162;41.724;13.346;2022-10-17T12:49:41;97833.72;;;21.95;57.14
51123;BME280;37162;41.724;13.346;2022-10-17T12:52:25;97836.06;;;21.91;57.30
51123;BME280;37162;41.724;13.346;2022-10-17T13:00:14;97826.94;;;21.81;57.29
51123;BME280;37162;41.724;13.346;2022-10-17T13:02:41;97828.81;;;21.80;57.54
51123;BME280;37162;41.724;13.346;2022-10-17T13:05:15;97828.22;;;21.78;57.32
51123;BME280;37162;41.724;13.346;2022-10-17T13:07:43;97828.47;;;21.77;57.89
51123;BME280;37162;41.724;13.346;2022-10-17T13:10:31;97822.69;;;21.73;57.57
51123;BME280;37162;41.724;13.346;2022-10-17T13:13:10;97816.13;;;21.69;57.88
51123;BME280;37162;41.724;13.346;2022-10-17T13:15:38;97812.72;;;21.62;57.66
51123;BME280;37162;41.724;13.346;2022-10-17T13:18:04;97823.66;;;21.67;58.25
51123;BME280;37162;41.724;13.346;2022-10-17T13:20:31;97814.16;;;21.64;57.89
51123;BME280;37162;41.724;13.346;2022-10-17T13:22:57;97817.06;;;21.63;58.00
51123;BME280;37162;41.724;13.346;2022-10-17T13:25:24;97812.72;;;21.62;58.22
51123;BME280;37162;41.724;13.346;2022-10-17T13:27:50;97815.06;;;21.58;58.32
51123;BME280;37162;41.724;13.346;2022-10-17T13:30:32;97818.84;;;21.57;58.14
51123;BME280;37162;41.724;13.346;2022-10-17T13:32:59;97811.69;;;21.51;58.41
51123;BME280;37162;41.724;13.346;2022-10-17T13:35:35;97816.59;;;21.54;58.23
51123;BME280;37162;41.724;13.346;2022-10-17T13:38:04;97814.97;;;21.53;58.22
51123;BME280;37162;41.724;13.346;2022-10-17T13:40:41;97811.69;;;21.51;57.93
51123;BME280;37162;41.724;13.346;2022-10-17T13:43:17;97815.47;;;21.50;58.08
51123;BME280;37162;41.724;13.346;2022-10-17T13:46:02;97814.59;;;21.50;58.37
51123;BME280;37162;41.724;13.346;2022-10-17T13:48:31;97817.56;;;21.48;58.55
51123;BME280;37162;41.724;13.346;2022-10-17T13:51:00;97819.44;;;21.48;58.38
51123;BME280;37162;41.724;13.346;2022-10-17T13:53:38;97816.16;;;21.46;58.49
51123;BME280;37162;41.724;13.346;2022-10-17T13:56:23;97813.66;;;21.44;58.67
51123;BME280;37162;41.724;13.346;2022-10-17T13:58:53;97799.69;;;21.35;58.61
51123;BME280;37162;41.724;13.346;2022-10-17T14:01:22;97816.63;;;21.42;58.70
51123;BME280;37162;41.724;13.346;2022-10-17T14:06:19;97812.50;;;21.40;58.70
51123;BME280;37162;41.724;13.346;2022-10-17T14:11:30;97818.97;;;21.39;58.92
51123;BME280;37162;41.724;13.346;2022-10-17T14:13:57;97814.88;;;21.36;58.97
51123;BME280;37162;41.724;13.346;2022-10-17T14:16:24;97817.56;;;21.36;58.83
51123;BME280;37162;41.724;13.346;2022-10-17T14:18:52;97820.28;;;21.36;58.89
51123;BME280;37162;41.724;13.346;2022-10-17T14:21:20;97819.44;;;21.36;59.14
51123;BME280;37162;41.724;13.346;2022-10-17T14:23:47;97820.50;;;21.35;59.17
51123;BME280;37162;41.724;13.346;2022-10-17T14:26:19;97821.56;;;21.34;59.06
51123;BME280;37162;41.724;13.346;2022-10-17T14:28:48;97826.16;;;21.33;59.23
51123;BME280;37162;41.724;13.346;2022-10-17T14:31:24;97824.25;;;21.34;59.12
51123;BME280;37162;41.724;13.346;2022-10-17T14:33:53;97821.81;;;21.32;59.17
51123;BME280;37162;41.724;13.346;2022-10-17T14:36:20;97829.09;;;21.32;59.38
51123;BME280;37162;41.724;13.346;2022-10-17T14:38:54;97828.25;;;21.31;59.27
51123;BME280;37162;41.724;13.346;2022-10-17T14:41:24;97832.81;;;21.31;59.30
51123;BME280;37162;41.724;13.346;2022-10-17T14:43:59;97831.16;;;21.30;58.63
51123;BME280;37162;41.724;13.346;2022-10-17T14:46:26;97826.38;;;21.32;58.82
51123;BME280;37162;41.724;13.346;2022-10-17T14:49:01;97827.22;;;21.32;59.27
51123;BME280;37162;41.724;13.346;2022-10-17T14:51:27;97824.72;;;21.31;59.58
51123;BME280;37162;41.724;13.346;2022-10-17T14:54:25;97823.88;;;21.30;59.67
51123;BME280;37162;41.724;13.346;2022-10-17T14:56:52;97826.81;;;21.29;59.64
51123;BME280;37162;41.724;13.346;2022-10-17T14:59:18;97824.81;;;21.24;59.82